Time;durP1;ratioP1;P1;durP2;ratioP2;P2;SDS_P1;SDS_P2;PMS_P1;PMS_P2;Temp;Humidity;BMP_temperature;BMP_pressure;BME280_temperature;BME280_humidity;BME280_pressure;Samples;Min_cycle;Max_cycle;Signal;HPM_P1;HPM_P2
2023/07/14 00:00:16;;;;;;;8.00;2.95;;;15.20;99.90;;;;;;4882486;29;20514;-66
2023/07/14 00:02:45;;;;;;;13.23;3.35;;;15.20;99.90;;;;;;4881323;29;20056;-65
2023/07/14 00:05:23;;;;;;;8.93;3.10;;;15.20;99.90;;;;;;4883309;29;20473;-65
2023/07/14 00:07:50;;;;;;;9.98;3.25;;;15.20;99.90;;;;;;4883699;29;20030;-65
2023/07/14 00:10:21;;;;;;;11.23;3.65;;;15.20;99.90;;;;;;4870917;29;20033;-65
2023/07/14 00:12:48;;;;;;;12.45;3.22;;;15.20;99.90;;;;;;4895968;29;20092;-65
2023/07/14 00:15:14;;;;;;;9.57;3.08;;;15.20;99.90;;;;;;4882679;29;20493;-65
2023/07/14 00:17:40;;;;;;;8.45;3.05;;;15.20;99.90;;;;;;4881014;29;20396;-66
2023/07/14 00:20:19;;;;;;;12.93;3.50;;;15.30;99.90;;;;;;4883845;29;20034;-65
2023/07/14 00:22:45;;;;;;;13.60;4.10;;;15.30;99.90;;;;;;4864640;29;20560;-66
2023/07/14 00:25:12;;;;;;;9.93;3.47;;;15.30;99.90;;;;;;4861669;29;20045;-65
2023/07/14 00:27:38;;;;;;;9.50;3.10;;;15.30;99.90;;;;;;4877362;29;20271;-65
2023/07/14 00:30:13;;;;;;;8.30;2.88;;;15.30;99.90;;;;;;4881587;29;20381;-65
2023/07/14 00:32:39;;;;;;;8.48;2.80;;;15.30;99.90;;;;;;4869892;29;20112;-65
2023/07/14 00:35:26;;;;;;;9.43;3.75;;;15.20;99.90;;;;;;4879776;29;20416;-65
2023/07/14 00:37:57;;;;;;;10.15;3.05;;;15.30;99.90;;;;;;4881346;29;20032;-65
2023/07/14 00:40:49;;;;;;;11.43;3.28;;;15.20;99.90;;;;;;4882152;29;20048;-65
2023/07/14 00:43:21;;;;;;;10.38;3.30;;;15.10;99.90;;;;;;4877242;29;20054;-65
2023/07/14 00:45:49;;;;;;;12.93;3.60;;;15.10;99.90;;;;;;4878012;29;20037;-65
2023/07/14 00:48:19;;;;;;;9.85;3.53;;;15.20;99.90;;;;;;4875619;29;20044;-65
2023/07/14 00:50:48;;;;;;;13.98;3.28;;;15.20;99.90;;;;;;4881581;29;20035;-65
2023/07/14 00:53:37;;;;;;;8.18;3.00;;;15.20;99.90;;;;;;4882288;29;20276;-65
2023/07/14 00:56:23;;;;;;;9.80;2.97;;;15.20;99.90;;;;;;4882056;29;20508;-65
2023/07/14 00:58:51;;;;;;;8.10;3.25;;;15.10;99.90;;;;;;4871596;29;20040;-65
2023/07/14 01:01:22;;;;;;;10.80;3.15;;;15.10;99.90;;;;;;4875171;29;20582;-65
2023/07/14 01:03:50;;;;;;;;;;;15.20;99.90;;;;;;4877538;29;20354;-65
2023/07/14 01:06:32;;;;;;;7.55;2.97;;;15.10;99.90;;;;;;4880159;29;19951;-65
2023/07/14 01:09:04;;;;;;;10.00;3.22;;;15.10;99.90;;;;;;4882808;29;20029;-65
2023/07/14 01:11:47;;;;;;;10.00;2.97;;;15.00;99.90;;;;;;4875172;29;20032;-65
2023/07/14 01:14:28;;;;;;;11.10;3.58;;;15.00;99.90;;;;;;4896873;29;20519;-65
2023/07/14 01:16:55;;;;;;;;;;;15.00;99.90;;;;;;4880678;29;20032;-65
2023/07/14 01:19:46;;;;;;;10.32;3.10;;;15.00;99.90;;;;;;4882982;29;20026;-65
2023/07/14 01:22:38;;;;;;;11.00;3.47;;;15.00;99.90;;;;;;4877486;29;20533;-65
2023/07/14 01:25:11;;;;;;;;;;;15.00;99.90;;;;;;4882343;29;20095;-65
2023/07/14 01:27:37;;;;;;;10.90;3.25;;;14.90;99.90;;;;;;4885504;29;19915;-65
2023/07/14 01:30:03;;;;;;;12.07;3.40;;;14.90;99.90;;;;;;4886619;29;20092;-65
2023/07/14 01:32:37;;;;;;;8.77;3.17;;;14.80;99.90;;;;;;4884775;29;20063;-65
2023/07/14 01:35:05;;;;;;;9.23;3.30;;;14.80;99.90;;;;;;4871827;29;20131;-65
2023/07/14 01:37:37;;;;;;;13.70;3.90;;;14.70;99.90;;;;;;4880874;29;20104;-65
2023/07/14 01:40:13;;;;;;;11.10;2.95;;;14.70;99.90;;;;;;4883940;29;20071;-65
2023/07/14 01:42:43;;;;;;;10.07;3.28;;;14.70;99.90;;;;;;4884094;29;20374;-65
2023/07/14 01:45:16;;;;;;;9.80;2.97;;;14.70;99.90;;;;;;4883687;29;20147;-65
2023/07/14 01:47:45;;;;;;;8.35;3.30;;;14.70;99.90;;;;;;4881815;29;20315;-65
2023/07/14 01:50:23;;;;;;;13.25;3.78;;;14.70;99.90;;;;;;4880460;29;20063;-66
2023/07/14 01:52:58;;;;;;;10.23;3.72;;;14.70;99.90;;;;;;4884304;29;20111;-65
2023/07/14 01:55:31;;;;;;;11.13;3.15;;;14.70;99.90;;;;;;4884159;29;20029;-65
2023/07/14 01:57:59;;;;;;;8.80;2.47;;;14.60;99.90;;;;;;4883119;29;20032;-65
2023/07/14 02:00:26;;;;;;;7.45;2.88;;;14.70;99.90;;;;;;4883822;29;20036;-65
2023/07/14 02:02:53;;;;;;;11.23;3.20;;;14.60;99.90;;;;;;4883551;29;20060;-65
2023/07/14 02:05:38;;;;;;;7.22;3.40;;;14.70;99.90;;;;;;4883489;29;20488;-65
2023/07/14 02:08:06;;;;;;;6.85;3.13;;;14.60;99.90;;;;;;4882540;29;20152;-65
2023/07/14 02:10:32;;;;;;;9.05;3.30;;;14.60;99.90;;;;;;4884935;29;20036;-65
2023/07/14 02:13:00;;;;;;;8.18;3.28;;;14.60;99.90;;;;;;4881747;29;20663;-65
2023/07/14 02:15:29;;;;;;;6.97;2.90;;;14.60;99.90;;;;;;4884000;29;20044;-65
2023/07/14 02:17:55;;;;;;;7.47;2.85;;;14.60;99.90;;;;;;4882433;29;20028;-65
2023/07/14 02:20:26;;;;;;;8.85;3.20;;;14.60;99.90;;;;;;4883384;29;20029;-65
2023/07/14 02:22:54;;;;;;;7.25;2.78;;;14.60;99.90;;;;;;4883238;29;20222;-65
2023/07/14 02:25:22;;;;;;;7.30;3.08;;;14.60;99.90;;;;;;4885101;29;20135;-65
2023/07/14 02:27:48;;;;;;;7.80;3.03;;;14.60;99.90;;;;;;4883783;29;20370;-66
2023/07/14 02:30:17;;;;;;;9.75;3.03;;;14.60;99.90;;;;;;4882948;29;20555;-65
2023/07/14 02:32:49;;;;;;;13.55;3.40;;;14.60;99.90;;;;;;4882160;29;20032;-65
2023/07/14 02:35:19;;;;;;;;;;;14.60;99.90;;;;;;4883139;29;20204;-65
2023/07/14 02:38:02;;;;;;;7.47;2.95;;;14.60;99.90;;;;;;4883940;29;19915;-65
2023/07/14 02:40:44;;;;;;;8.93;2.42;;;14.50;99.90;;;;;;4884058;29;20255;-66
2023/07/14 02:43:16;;;;;;;9.73;3.88;;;14.50;99.90;;;;;;4884399;29;20169;-66
2023/07/14 02:45:57;;;;;;;13.82;3.67;;;14.40;99.90;;;;;;4884416;29;20032;-65
2023/07/14 02:48:35;;;;;;;8.47;3.20;;;14.30;99.90;;;;;;4869831;29;20125;-65
2023/07/14 02:51:02;;;;;;;9.75;3.15;;;14.40;99.90;;;;;;4883084;29;20287;-67
2023/07/14 02:53:28;;;;;;;6.85;3.30;;;14.40;99.90;;;;;;4889569;29;20446;-65
2023/07/14 02:55:53;;;;;;;12.40;3.50;;;14.40;99.90;;;;;;4883830;29;20085;-65
2023/07/14 02:58:19;;;;;;;10.48;3.55;;;14.50;99.90;;;;;;4883411;29;20025;-65
2023/07/14 03:00:45;;;;;;;9.50;3.22;;;14.50;99.90;;;;;;4882918;29;20049;-65
2023/07/14 03:03:11;;;;;;;10.07;3.67;;;14.60;99.90;;;;;;4882824;29;20031;-65
2023/07/14 03:05:37;;;;;;;7.32;3.22;;;14.60;99.90;;;;;;4884006;29;20678;-65
2023/07/14 03:08:07;;;;;;;12.23;3.22;;;14.60;99.90;;;;;;4894738;29;20532;-65
2023/07/14 03:10:32;;;;;;;12.05;3.38;;;14.60;99.90;;;;;;4882992;29;20080;-65
2023/07/14 03:12:58;;;;;;;8.70;3.35;;;14.70;99.90;;;;;;4883000;29;20044;-65
2023/07/14 03:15:24;;;;;;;12.70;3.70;;;14.70;99.90;;;;;;4884056;29;20048;-65
2023/07/14 03:17:50;;;;;;;10.45;3.10;;;14.70;99.90;;;;;;4881744;29;20032;-65
2023/07/14 03:20:16;;;;;;;8.27;2.90;;;14.80;99.90;;;;;;4879500;29;20035;-65
2023/07/14 03:22:43;;;;;;;7.13;3.08;;;14.70;99.90;;;;;;4878087;29;20053;-65
2023/07/14 03:25:09;;;;;;;10.90;3.63;;;14.80;99.90;;;;;;4880699;29;20124;-65
2023/07/14 03:27:34;;;;;;;8.48;3.22;;;14.70;99.90;;;;;;4879989;29;20029;-65
2023/07/14 03:30:00;;;;;;;10.02;3.55;;;14.60;99.90;;;;;;4883969;29;20127;-65
2023/07/14 03:32:26;;;;;;;7.32;2.92;;;14.70;99.90;;;;;;4881421;29;20460;-65
2023/07/14 03:34:51;;;;;;;10.80;3.60;;;14.70;99.90;;;;;;4882193;29;20163;-65
2023/07/14 03:37:17;;;;;;;8.65;3.47;;;14.70;99.90;;;;;;4880990;29;20248;-65
2023/07/14 03:39:43;;;;;;;10.82;3.95;;;14.70;99.90;;;;;;4880096;29;20560;-65
2023/07/14 03:42:08;;;;;;;11.48;3.90;;;14.70;99.90;;;;;;4877533;29;20126;-65
2023/07/14 03:44:34;;;;;;;12.23;4.20;;;14.70;99.90;;;;;;4880938;29;20044;-65
2023/07/14 03:47:02;;;;;;;10.43;3.72;;;14.80;99.90;;;;;;4880418;29;20135;-65
2023/07/14 03:49:28;;;;;;;8.40;3.90;;;14.80;99.90;;;;;;4881814;29;20035;-65
2023/07/14 03:51:54;;;;;;;11.95;4.13;;;14.80;99.90;;;;;;4881464;29;20037;-65
2023/07/14 03:54:20;;;;;;;7.68;3.85;;;14.80;99.90;;;;;;4883094;29;20032;-65
2023/07/14 03:56:45;;;;;;;12.20;3.92;;;14.90;99.90;;;;;;4882975;29;20036;-65
2023/07/14 03:59:13;;;;;;;10.77;3.80;;;14.90;99.90;;;;;;4882810;29;20059;-65
2023/07/14 04:01:39;;;;;;;9.25;3.83;;;14.90;99.90;;;;;;4882272;29;20033;-66
2023/07/14 04:04:07;;;;;;;11.23;4.32;;;14.90;99.90;;;;;;4883034;29;20052;-65
2023/07/14 04:06:32;;;;;;;11.13;3.97;;;14.90;99.90;;;;;;4883017;29;20063;-67
2023/07/14 04:09:00;;;;;;;15.25;4.97;;;14.90;99.90;;;;;;4882635;29;20040;-66
2023/07/14 04:11:26;;;;;;;12.35;4.72;;;14.90;99.90;;;;;;4881322;29;20020;-66
2023/07/14 04:13:52;;;;;;;13.30;4.47;;;15.00;99.90;;;;;;4882084;29;20032;-66
2023/07/14 04:16:18;;;;;;;10.73;3.97;;;14.90;99.90;;;;;;4881157;29;20593;-66
2023/07/14 04:18:44;;;;;;;12.02;4.35;;;15.00;99.90;;;;;;4885415;29;20489;-66
2023/07/14 04:21:13;;;;;;;11.23;3.53;;;15.00;99.90;;;;;;4870183;29;20068;-66
2023/07/14 04:23:39;;;;;;;7.50;3.33;;;15.10;99.90;;;;;;4869066;29;20040;-66
2023/07/14 04:26:07;;;;;;;7.45;3.00;;;15.10;99.90;;;;;;4871613;29;20048;-66
2023/07/14 04:28:34;;;;;;;9.65;3.13;;;15.10;99.90;;;;;;4878738;29;20040;-66
2023/07/14 04:31:02;;;;;;;9.68;3.53;;;15.20;99.90;;;;;;4876322;29;20112;-66
2023/07/14 04:33:29;;;;;;;12.07;3.78;;;15.20;99.90;;;;;;4876817;29;20024;-67
2023/07/14 04:35:56;;;;;;;8.27;3.65;;;15.20;99.90;;;;;;4877988;29;20075;-67
2023/07/14 04:38:23;;;;;;;8.20;3.70;;;15.20;99.90;;;;;;4880262;29;20021;-66
2023/07/14 04:40:49;;;;;;;11.05;3.50;;;15.30;99.90;;;;;;4881373;29;20068;-66
2023/07/14 04:43:16;;;;;;;13.95;3.55;;;15.40;99.90;;;;;;4880909;29;20068;-66
2023/07/14 04:45:44;;;;;;;12.48;2.88;;;15.40;99.90;;;;;;4882767;29;20066;-66
2023/07/14 04:48:14;;;;;;;10.32;3.03;;;15.50;99.90;;;;;;4880759;29;20029;-66
2023/07/14 04:50:39;;;;;;;11.43;3.20;;;15.50;99.90;;;;;;4882418;29;20036;-66
2023/07/14 04:53:06;;;;;;;7.63;2.42;;;15.50;99.90;;;;;;4882305;29;20410;-66
2023/07/14 04:55:35;;;;;;;9.35;3.25;;;15.60;99.90;;;;;;4882144;29;20048;-66
2023/07/14 04:58:01;;;;;;;9.85;3.50;;;15.60;99.90;;;;;;4882167;29;20036;-66
2023/07/14 05:00:26;;;;;;;13.60;3.72;;;15.60;99.90;;;;;;4882601;29;20095;-66
2023/07/14 05:02:52;;;;;;;12.15;3.55;;;15.60;99.90;;;;;;4881661;29;20044;-68
2023/07/14 05:05:20;;;;;;;10.48;3.80;;;15.70;99.90;;;;;;4883182;29;20091;-66
2023/07/14 05:07:48;;;;;;;16.65;4.55;;;15.70;99.90;;;;;;4883859;29;20048;-66
2023/07/14 05:10:14;;;;;;;10.35;4.10;;;15.80;99.90;;;;;;4883984;29;20024;-66
2023/07/14 05:12:39;;;;;;;8.48;4.18;;;15.90;99.90;;;;;;4884385;29;20088;-66
2023/07/14 05:15:10;;;;;;;10.27;4.03;;;15.90;99.90;;;;;;4900422;29;20044;-66
2023/07/14 05:17:41;;;;;;;11.38;4.50;;;16.00;99.90;;;;;;4882897;29;20084;-66
2023/07/14 05:20:10;;;;;;;9.65;3.83;;;16.20;99.90;;;;;;4882987;29;20485;-66
2023/07/14 05:22:46;;;;;;;12.75;4.18;;;16.30;99.90;;;;;;4883593;29;20698;-66
2023/07/14 05:25:14;;;;;;;11.00;3.63;;;16.40;99.90;;;;;;4885490;29;20079;-66
2023/07/14 05:27:43;;;;;;;11.02;3.25;;;16.50;99.90;;;;;;4884409;29;20413;-66
2023/07/14 05:30:10;;;;;;;6.53;2.70;;;16.50;99.90;;;;;;4885875;29;20591;-66
2023/07/14 05:32:36;;;;;;;6.57;2.78;;;16.50;99.90;;;;;;4884230;29;20107;-66
2023/07/14 05:35:02;;;;;;;13.27;3.15;;;16.50;99.90;;;;;;4867055;29;20041;-66
2023/07/14 05:37:28;;;;;;;10.57;2.75;;;16.40;99.90;;;;;;4880908;29;20497;-67
2023/07/14 05:39:54;;;;;;;9.65;2.70;;;16.40;99.90;;;;;;4883113;29;20064;-66
2023/07/14 05:42:19;;;;;;;8.65;2.90;;;16.40;99.90;;;;;;4882980;29;20036;-66
2023/07/14 05:44:45;;;;;;;8.57;2.70;;;16.40;99.90;;;;;;4885914;29;20103;-67
2023/07/14 05:47:11;;;;;;;8.60;2.70;;;16.30;99.90;;;;;;4882025;29;20700;-66
2023/07/14 05:49:36;;;;;;;9.88;3.28;;;16.20;99.90;;;;;;4882330;29;20820;-66
2023/07/14 05:52:03;;;;;;;8.57;3.05;;;16.30;99.90;;;;;;4883618;29;20032;-66
2023/07/14 05:54:29;;;;;;;7.97;2.75;;;16.30;99.90;;;;;;4882164;29;20139;-66
2023/07/14 05:56:55;;;;;;;9.70;2.67;;;16.50;99.90;;;;;;4880315;29;20235;-66
2023/07/14 05:59:20;;;;;;;8.55;2.85;;;16.70;99.90;;;;;;4874609;29;20187;-66
2023/07/14 06:01:46;;;;;;;12.45;3.53;;;16.80;99.90;;;;;;4882236;29;20228;-66
2023/07/14 06:04:12;;;;;;;12.43;3.42;;;17.00;99.90;;;;;;4878317;29;20056;-67
2023/07/14 06:06:38;;;;;;;11.23;3.08;;;17.10;99.90;;;;;;4875525;29;20107;-66
2023/07/14 06:09:05;;;;;;;11.45;3.17;;;17.20;99.90;;;;;;4870888;29;20059;-66
2023/07/14 06:11:31;;;;;;;8.82;2.80;;;17.20;99.90;;;;;;4869691;29;20412;-66
2023/07/14 06:13:57;;;;;;;6.82;2.47;;;17.20;99.90;;;;;;4881160;29;20421;-66
2023/07/14 06:16:23;;;;;;;8.95;2.47;;;17.20;99.90;;;;;;4884067;29;20198;-66
2023/07/14 06:18:50;;;;;;;7.68;2.40;;;17.30;99.90;;;;;;4883127;29;20460;-66
2023/07/14 06:21:15;;;;;;;6.13;2.40;;;17.50;99.90;;;;;;4883170;29;20028;-65
2023/07/14 06:23:41;;;;;;;7.65;2.38;;;17.60;99.90;;;;;;4879065;29;20040;-66
2023/07/14 06:26:07;;;;;;;7.43;2.53;;;17.60;99.90;;;;;;4883198;29;20055;-65
2023/07/14 06:28:32;;;;;;;6.70;2.40;;;17.60;99.90;;;;;;4881830;29;20028;-66
2023/07/14 06:31:04;;;;;;;6.35;2.45;;;17.50;99.90;;;;;;4883371;29;20040;-66
2023/07/14 06:33:30;;;;;;;;;;;17.40;99.90;;;;;;4883673;29;20136;-67
2023/07/14 06:35:58;;;;;;;8.48;2.50;;;17.30;99.90;;;;;;4884822;29;19998;-66
2023/07/14 06:38:25;;;;;;;4.80;2.00;;;17.40;99.90;;;;;;4866031;29;20125;-66
2023/07/14 06:41:07;;;;;;;7.70;2.38;;;17.50;99.90;;;;;;4882106;29;20032;-66
2023/07/14 06:43:33;;;;;;;6.45;2.20;;;17.50;99.90;;;;;;4884447;29;20132;-66
2023/07/14 06:45:59;;;;;;;7.45;2.25;;;17.60;99.90;;;;;;4884013;29;20538;-66
2023/07/14 06:48:26;;;;;;;6.82;1.80;;;17.80;99.90;;;;;;4880587;29;20037;-66
2023/07/14 06:50:52;;;;;;;5.63;2.05;;;18.00;99.90;;;;;;4880425;29;20107;-66
2023/07/14 06:53:18;;;;;;;7.78;2.38;;;18.20;99.90;;;;;;4883777;29;20044;-66
2023/07/14 06:55:45;;;;;;;6.18;2.08;;;18.50;99.90;;;;;;4884225;29;20132;-66
2023/07/14 06:58:11;;;;;;;7.05;2.22;;;18.50;99.90;;;;;;4881284;29;20574;-66
2023/07/14 07:00:37;;;;;;;5.43;1.70;;;18.50;99.90;;;;;;4879122;29;20400;-65
2023/07/14 07:03:05;;;;;;;6.82;2.22;;;18.50;99.90;;;;;;4884958;29;20024;-66
2023/07/14 07:05:35;;;;;;;7.72;2.00;;;18.20;99.90;;;;;;4883981;29;20044;-66
2023/07/14 07:08:00;;;;;;;6.75;2.28;;;18.10;99.90;;;;;;4873579;29;20063;-66
2023/07/14 07:10:28;;;;;;;7.55;2.25;;;18.10;99.90;;;;;;4873769;29;20763;-66
2023/07/14 07:12:54;;;;;;;5.45;2.22;;;18.10;99.90;;;;;;4871131;29;20441;-66
2023/07/14 07:15:19;;;;;;;8.70;2.13;;;18.30;99.90;;;;;;4878091;29;20039;-66
2023/07/14 07:17:46;;;;;;;9.93;2.33;;;18.50;99.90;;;;;;4880387;29;20043;-66
2023/07/14 07:20:13;;;;;;;5.85;1.98;;;18.60;99.90;;;;;;4880556;29;20032;-66
2023/07/14 07:22:40;;;;;;;4.78;2.10;;;18.70;99.90;;;;;;4882871;29;20540;-66
2023/07/14 07:25:06;;;;;;;8.27;2.10;;;18.70;99.90;;;;;;4867684;29;20075;-66
2023/07/14 07:27:32;;;;;;;7.85;2.40;;;18.70;99.90;;;;;;4867708;29;20350;-66
2023/07/14 07:29:58;;;;;;;8.10;2.63;;;18.70;99.90;;;;;;4871189;29;20032;-66
2023/07/14 07:32:24;;;;;;;7.50;2.40;;;18.60;99.90;;;;;;4870051;29;20039;-66
2023/07/14 07:34:49;;;;;;;8.40;2.60;;;18.50;99.90;;;;;;4872144;29;20029;-66
2023/07/14 07:37:15;;;;;;;6.38;2.58;;;18.50;99.90;;;;;;4874251;29;20029;-66
2023/07/14 07:39:40;;;;;;;6.47;2.28;;;18.40;99.90;;;;;;4868166;29;20037;-66
2023/07/14 07:42:07;;;;;;;10.20;2.88;;;18.40;99.90;;;;;;4867244;29;20033;-66
2023/07/14 07:44:34;;;;;;;7.00;2.22;;;18.30;99.90;;;;;;4875720;29;20082;-66
2023/07/14 07:46:59;;;;;;;6.60;2.38;;;18.30;99.90;;;;;;4867277;29;20028;-66
2023/07/14 07:49:26;;;;;;;7.78;2.47;;;18.40;99.90;;;;;;4880833;29;20357;-66
2023/07/14 07:51:52;;;;;;;6.45;2.47;;;18.50;99.90;;;;;;4882269;29;20036;-66
2023/07/14 07:54:18;;;;;;;7.93;2.00;;;18.30;99.90;;;;;;4883185;29;20517;-66
2023/07/14 07:56:44;;;;;;;5.18;2.00;;;18.30;99.90;;;;;;4874390;29;20346;-71
2023/07/14 07:59:16;;;;;;;7.03;2.05;;;18.30;99.90;;;;;;4880195;29;20060;-67
2023/07/14 08:01:43;;;;;;;7.75;2.63;;;18.30;99.90;;;;;;4881144;29;20045;-66
2023/07/14 08:04:10;;;;;;;5.60;2.20;;;18.30;99.90;;;;;;4883351;29;20353;-66
2023/07/14 08:06:38;;;;;;;7.55;2.17;;;18.20;99.90;;;;;;4882697;29;20123;-66
2023/07/14 08:09:06;;;;;;;6.80;2.17;;;18.20;99.90;;;;;;4881166;29;20108;-66
2023/07/14 08:11:33;;;;;;;7.85;2.40;;;18.10;99.90;;;;;;4880875;29;20115;-66
2023/07/14 08:14:01;;;;;;;4.93;2.40;;;18.10;99.90;;;;;;4879199;29;20036;-66
2023/07/14 08:16:27;;;;;;;8.27;2.30;;;18.20;99.90;;;;;;4879083;29;20035;-66
2023/07/14 08:18:53;;;;;;;9.88;2.22;;;18.10;99.90;;;;;;4882446;29;20028;-66
2023/07/14 08:21:18;;;;;;;9.38;2.67;;;18.20;99.90;;;;;;4878578;29;20372;-67
2023/07/14 08:23:44;;;;;;;6.22;2.00;;;18.20;99.90;;;;;;4882500;29;20064;-67
2023/07/14 08:26:11;;;;;;;5.05;2.15;;;18.30;99.90;;;;;;4883708;29;20375;-66
2023/07/14 08:28:36;;;;;;;6.55;2.30;;;18.30;99.90;;;;;;4878223;29;20368;-67
2023/07/14 08:31:08;;;;;;;7.40;2.42;;;18.20;99.90;;;;;;4877155;29;20021;-67
2023/07/14 08:33:35;;;;;;;10.75;2.83;;;18.10;99.90;;;;;;4871649;29;20324;-67
2023/07/14 08:36:02;;;;;;;7.30;2.10;;;18.10;99.90;;;;;;4882306;29;20038;-66
2023/07/14 08:38:30;;;;;;;8.20;2.47;;;18.00;99.90;;;;;;4883385;29;20289;-67
2023/07/14 08:41:09;;;;;;;7.80;2.42;;;18.00;99.90;;;;;;4882580;29;20123;-67
2023/07/14 08:43:37;;;;;;;7.80;2.80;;;18.00;99.90;;;;;;4879446;29;20127;-67
2023/07/14 08:46:24;;;;;;;6.20;2.78;;;17.90;99.90;;;;;;4881042;29;20748;-67
2023/07/14 08:49:24;;;;;;;9.40;2.75;;;17.90;99.90;;;;;;4894262;29;20099;-67
2023/07/14 08:51:58;;;;;;;10.35;2.60;;;17.80;99.90;;;;;;4870904;29;20044;-66
2023/07/14 08:54:29;;;;;;;8.30;2.58;;;17.80;99.90;;;;;;4883018;29;20040;-67
2023/07/14 08:56:55;;;;;;;7.47;2.60;;;17.90;99.90;;;;;;4879519;29;20370;-67
2023/07/14 08:59:34;;;;;;;9.07;2.72;;;18.00;99.90;;;;;;4881710;29;20037;-67
2023/07/14 09:02:04;;;;;;;9.30;2.65;;;17.90;99.90;;;;;;4879893;29;20036;-67
2023/07/14 09:04:38;;;;;;;11.48;2.38;;;17.90;99.90;;;;;;4880193;29;20115;-67
2023/07/14 09:07:10;;;;;;;6.32;2.53;;;17.70;99.90;;;;;;4884833;29;20043;-67
2023/07/14 09:09:39;;;;;;;8.30;2.55;;;17.70;99.90;;;;;;4880852;29;20044;-66
2023/07/14 09:12:29;;;;;;;10.35;2.38;;;17.80;99.90;;;;;;4871778;29;20453;-67
2023/07/14 09:15:09;;;;;;;6.28;2.30;;;17.90;99.90;;;;;;4533873;29;10000484;-67
2023/07/14 09:18:09;;;;;;;8.80;2.70;;;18.10;99.90;;;;;;4873154;29;20073;-67
2023/07/14 09:20:58;;;;;;;6.53;2.30;;;18.20;99.90;;;;;;4876600;29;20303;-67
2023/07/14 09:23:23;;;;;;;5.32;2.20;;;18.30;99.90;;;;;;4876901;29;20521;-66
2023/07/14 09:25:55;;;;;;;11.10;2.38;;;18.60;99.90;;;;;;4877261;29;20092;-66
2023/07/14 09:28:35;;;;;;;5.93;2.20;;;18.70;99.90;;;;;;4861348;29;20618;-66
2023/07/14 09:31:09;;;;;;;5.80;1.88;;;18.80;99.90;;;;;;4876325;29;20108;-66
2023/07/14 09:33:46;;;;;;;7.05;2.50;;;18.80;99.90;;;;;;4874423;29;20032;-66
2023/07/14 09:36:12;;;;;;;6.28;2.03;;;18.90;99.90;;;;;;4876639;29;20048;-66
2023/07/14 09:39:09;;;;;;;6.88;2.05;;;19.10;99.90;;;;;;4881338;29;20115;-66
2023/07/14 09:41:35;;;;;;;8.82;2.63;;;19.40;99.90;;;;;;4878598;29;20219;-66
2023/07/14 09:44:01;;;;;;;8.32;2.90;;;19.60;99.90;;;;;;4881326;29;20041;-66
2023/07/14 09:46:41;;;;;;;8.68;2.80;;;19.70;99.90;;;;;;4878898;29;20048;-66
2023/07/14 09:49:33;;;;;;;6.65;2.75;;;19.60;99.90;;;;;;4884555;29;20032;-66
2023/07/14 09:52:08;;;;;;;10.40;2.88;;;19.60;99.90;;;;;;4877831;29;20555;-66
2023/07/14 09:54:34;;;;;;;6.45;2.10;;;19.50;99.90;;;;;;4885972;29;20040;-66
2023/07/14 09:57:02;;;;;;;9.68;2.35;;;19.40;99.90;;;;;;4878479;29;20552;-66
2023/07/14 09:59:28;;;;;;;6.07;2.25;;;19.30;99.90;;;;;;4883503;29;20024;-66
2023/07/14 10:01:58;;;;;;;6.10;2.60;;;19.60;99.90;;;;;;4886781;29;20040;-66
2023/07/14 10:04:32;;;;;;;7.97;2.95;;;19.60;99.90;;;;;;4883043;29;20496;-66
2023/07/14 10:07:25;;;;;;;6.95;2.40;;;19.60;99.90;;;;;;4885205;29;20024;-66
2023/07/14 10:09:59;;;;;;;10.48;2.60;;;20.10;99.90;;;;;;4882622;29;20036;-66
2023/07/14 10:12:25;;;;;;;7.53;2.60;;;20.60;99.90;;;;;;4881527;29;20033;-66
2023/07/14 10:14:53;;;;;;;9.63;3.22;;;20.90;99.90;;;;;;4878705;29;20100;-66
2023/07/14 10:17:24;;;;;;;7.60;2.55;;;21.20;99.90;;;;;;4879546;29;20021;-65
2023/07/14 10:19:51;;;;;;;8.75;2.65;;;21.60;99.90;;;;;;4874900;29;20250;-66
2023/07/14 10:22:24;;;;;;;8.95;3.03;;;21.80;99.90;;;;;;4876051;29;20370;-66
2023/07/14 10:24:57;;;;;;;8.88;3.67;;;22.10;99.90;;;;;;4880517;29;20044;-66
2023/07/14 10:27:28;;;;;;;8.93;3.90;;;22.60;99.90;;;;;;4880687;29;20036;-66
2023/07/14 10:30:06;;;;;;;8.52;2.95;;;22.90;99.90;;;;;;4884612;29;20275;-66
2023/07/14 10:32:40;;;;;;;7.45;3.30;;;22.90;99.90;;;;;;4883002;29;20036;-66
2023/07/14 10:35:18;;;;;;;7.22;3.17;;;22.50;99.90;;;;;;4880917;29;20028;-66
2023/07/14 10:37:49;;;;;;;7.97;3.22;;;21.90;99.90;;;;;;4883143;29;20044;-66
2023/07/14 10:40:21;;;;;;;6.97;3.30;;;21.60;99.90;;;;;;4882062;29;20036;-66
2023/07/14 10:43:23;;;;;;;8.93;3.60;;;21.40;99.90;;;;;;4882624;29;20045;-66
2023/07/14 10:45:54;;;;;;;8.10;3.03;;;21.10;99.90;;;;;;4866401;29;20047;-66
2023/07/14 10:48:27;;;;;;;;;;;21.00;99.90;;;;;;4886463;29;20020;-66
2023/07/14 10:51:24;;;;;;;9.48;3.35;;;21.00;99.90;;;;;;4884497;29;20111;-66
2023/07/14 10:53:55;;;;;;;4.85;2.70;;;20.90;99.90;;;;;;4882055;29;20603;-66
2023/07/14 10:56:24;;;;;;;;;;;21.00;99.90;;;;;;4883332;29;20047;-66
2023/07/14 10:58:56;;;;;;;7.50;3.00;;;20.90;99.90;;;;;;4881412;29;19918;-67
2023/07/14 11:01:36;;;;;;;9.77;3.08;;;20.60;99.90;;;;;;4882043;29;20123;-66
2023/07/14 11:04:38;;;;;;;8.57;3.05;;;20.30;99.90;;;;;;4884019;29;20111;-66
2023/07/14 11:07:09;;;;;;;6.57;3.08;;;20.10;99.90;;;;;;4864072;29;20036;-66
2023/07/14 11:09:35;;;;;;;7.05;3.00;;;20.20;99.90;;;;;;4874150;29;20567;-66
2023/07/14 11:12:22;;;;;;;9.50;3.17;;;20.30;99.90;;;;;;4873139;29;20639;-66
2023/07/14 11:15:11;;;;;;;8.30;3.42;;;20.50;99.90;;;;;;4875477;29;20080;-66
2023/07/14 11:17:54;;;;;;;9.90;2.80;;;20.50;99.90;;;;;;4871826;29;20112;-66
2023/07/14 11:20:29;;;;;;;6.20;3.08;;;20.50;99.90;;;;;;4532307;29;10000051;-66
2023/07/14 11:23:19;;;;;;;6.07;2.55;;;20.60;99.90;;;;;;4869079;29;20055;-66
2023/07/14 11:26:02;;;;;;;10.27;3.00;;;20.50;99.90;;;;;;4874797;29;20432;-66
2023/07/14 11:28:51;;;;;;;6.25;2.88;;;20.40;99.90;;;;;;4869551;29;20153;-66
2023/07/14 11:31:32;;;;;;;7.18;3.13;;;20.20;99.90;;;;;;4878002;29;20036;-66
2023/07/14 11:34:23;;;;;;;7.65;3.40;;;20.20;99.90;;;;;;4871051;29;20469;-66
2023/07/14 11:37:20;;;;;;;6.77;3.10;;;20.20;99.90;;;;;;4879249;29;20040;-66
2023/07/14 11:39:56;;;;;;;3.60;2.65;;;20.20;99.90;;;;;;4866261;29;20048;-66
2023/07/14 11:42:33;;;;;;;7.22;3.03;;;20.50;99.90;;;;;;4875770;29;20048;-66
2023/07/14 11:45:03;;;;;;;11.00;3.30;;;20.60;99.90;;;;;;4880094;29;20068;-66
2023/07/14 11:47:41;;;;;;;7.22;3.03;;;20.80;99.90;;;;;;4880160;29;20544;-66
2023/07/14 11:50:15;;;;;;;4.93;2.50;;;21.10;99.90;;;;;;4880995;29;20442;-66
2023/07/14 11:52:56;;;;;;;11.13;3.40;;;21.30;99.90;;;;;;4875963;29;20036;-66
2023/07/14 11:55:23;;;;;;;8.23;2.72;;;21.40;99.90;;;;;;4883834;29;20444;-66
2023/07/14 11:58:21;;;;;;;9.48;3.17;;;21.50;99.90;;;;;;4879963;29;20234;-66
2023/07/14 12:01:00;;;;;;;5.70;2.88;;;21.70;99.90;;;;;;4872998;29;20184;-66
2023/07/14 12:03:32;;;;;;;4.95;3.00;;;22.00;99.90;;;;;;4879566;29;20036;-66
2023/07/14 12:06:20;;;;;;;5.85;2.55;;;22.30;99.90;;;;;;4882511;29;20028;-66
2023/07/14 12:09:02;;;;;;;7.05;2.80;;;22.50;99.90;;;;;;4879879;29;20075;-66
2023/07/14 12:11:29;;;;;;;8.95;2.75;;;22.90;99.90;;;;;;4872245;29;21378;-66
2023/07/14 12:13:58;;;;;;;5.28;2.70;;;23.30;99.90;;;;;;4875195;29;20124;-66
2023/07/14 12:16:28;;;;;;;11.00;2.80;;;23.40;99.90;;;;;;4875820;29;20048;-66
2023/07/14 12:18:56;;;;;;;7.32;2.95;;;23.40;99.90;;;;;;4881206;29;20048;-66
2023/07/14 12:21:42;;;;;;;5.22;2.20;;;23.30;99.90;;;;;;4879576;29;20032;-66
2023/07/14 12:24:15;;;;;;;4.93;2.63;;;23.10;99.90;;;;;;4873721;29;20323;-66
2023/07/14 12:26:52;;;;;;;5.03;2.50;;;22.90;99.90;;;;;;4877351;29;20480;-66
2023/07/14 12:29:19;;;;;;;6.30;2.67;;;22.80;99.90;;;;;;4878231;29;20951;-66
2023/07/14 12:31:53;;;;;;;8.80;2.85;;;22.30;99.90;;;;;;4878714;29;20040;-66
2023/07/14 12:34:27;;;;;;;5.97;2.42;;;22.00;99.90;;;;;;4879153;29;20138;-66
2023/07/14 12:36:53;;;;;;;5.65;2.75;;;22.00;99.90;;;;;;4875432;29;20044;-65
2023/07/14 12:39:18;;;;;;;5.68;2.60;;;22.10;99.90;;;;;;4879303;29;20033;-66
2023/07/14 12:41:50;;;;;;;7.18;2.67;;;22.30;99.90;;;;;;4878931;29;20036;-66
2023/07/14 12:44:28;;;;;;;8.35;2.70;;;22.40;99.90;;;;;;4880527;29;20052;-66
2023/07/14 12:46:55;;;;;;;5.13;2.42;;;22.70;99.90;;;;;;4876098;29;20033;-66
2023/07/14 12:49:37;;;;;;;7.38;2.70;;;22.60;99.90;;;;;;4882023;29;20047;-66
2023/07/14 12:52:06;;;;;;;4.82;2.30;;;22.40;99.90;;;;;;4879135;29;20055;-66
2023/07/14 12:54:31;;;;;;;3.88;1.98;;;22.10;99.90;;;;;;4876857;29;20031;-66
2023/07/14 12:57:01;;;;;;;5.88;1.67;;;22.10;99.90;;;;;;4874092;29;20044;-66
2023/07/14 12:59:27;;;;;;;3.20;1.30;;;22.00;99.90;;;;;;4880554;29;20135;-66
2023/07/14 13:01:54;;;;;;;2.35;1.33;;;22.20;99.90;;;;;;4877905;29;20119;-66
2023/07/14 13:04:21;;;;;;;4.00;1.45;;;22.40;99.90;;;;;;4877750;29;20041;-66